sensor_id;sensor_type;location;lat;lon;timestamp;P1;durP1;ratioP1;P2;durP2;ratioP2
21814;SDS011;11069;48.988;8.450;2023-07-02T00:00:26;4.25;;;3.70;;
21814;SDS011;11069;48.988;8.450;2023-07-02T00:02:52;5.03;;;4.30;;
21814;SDS011;11069;48.988;8.450;2023-07-02T00:05:17;4.75;;;4.22;;
21814;SDS011;11069;48.988;8.450;2023-07-02T00:07:43;6.70;;;4.75;;
21814;SDS011;11069;48.988;8.450;2023-07-02T00:10:08;5.50;;;4.20;;
21814;SDS011;11069;48.988;8.450;2023-07-02T00:12:35;5.55;;;4.18;;
21814;SDS011;11069;48.988;8.450;2023-07-02T00:15:01;6.20;;;4.80;;
21814;SDS011;11069;48.988;8.450;2023-07-02T00:17:27;5.93;;;5.10;;
21814;SDS011;11069;48.988;8.450;2023-07-02T00:19:54;4.88;;;4.03;;
21814;SDS011;11069;48.988;8.450;2023-07-02T00:22:20;5.82;;;4.53;;
21814;SDS011;11069;48.988;8.450;2023-07-02T00:24:46;4.28;;;3.85;;
21814;SDS011;11069;48.988;8.450;2023-07-02T00:27:11;6.38;;;4.25;;
21814;SDS011;11069;48.988;8.450;2023-07-02T00:29:37;6.00;;;4.22;;
21814;SDS011;11069;48.988;8.450;2023-07-02T00:32:02;5.68;;;4.55;;
21814;SDS011;11069;48.988;8.450;2023-07-02T00:34:28;6.53;;;4.47;;
21814;SDS011;11069;48.988;8.450;2023-07-02T00:36:54;5.38;;;4.13;;
21814;SDS011;11069;48.988;8.450;2023-07-02T00:39:20;5.50;;;4.43;;
21814;SDS011;11069;48.988;8.450;2023-07-02T00:41:45;5.53;;;4.40;;
21814;SDS011;11069;48.988;8.450;2023-07-02T00:44:16;4.95;;;4.25;;
21814;SDS011;11069;48.988;8.450;2023-07-02T00:46:42;5.30;;;3.97;;
21814;SDS011;11069;48.988;8.450;2023-07-02T00:49:08;8.07;;;4.57;;
21814;SDS011;11069;48.988;8.450;2023-07-02T00:51:34;7.20;;;4.20;;
21814;SDS011;11069;48.988;8.450;2023-07-02T00:53:59;4.93;;;4.32;;
21814;SDS011;11069;48.988;8.450;2023-07-02T00:56:25;5.93;;;4.03;;
21814;SDS011;11069;48.988;8.450;2023-07-02T00:58:52;5.93;;;4.18;;
21814;SDS011;11069;48.988;8.450;2023-07-02T01:04:04;7.95;;;4.30;;
21814;SDS011;11069;48.988;8.450;2023-07-02T01:06:33;6.10;;;4.47;;
21814;SDS011;11069;48.988;8.450;2023-07-02T01:09:00;4.30;;;3.90;;
21814;SDS011;11069;48.988;8.450;2023-07-02T01:11:31;5.88;;;3.70;;
21814;SDS011;11069;48.988;8.450;2023-07-02T01:14:05;4.25;;;3.80;;
21814;SDS011;11069;48.988;8.450;2023-07-02T01:16:37;5.30;;;4.15;;
21814;SDS011;11069;48.988;8.450;2023-07-02T01:19:11;5.25;;;3.97;;
21814;SDS011;11069;48.988;8.450;2023-07-02T01:21:44;5.28;;;4.20;;
21814;SDS011;11069;48.988;8.450;2023-07-02T01:24:12;5.22;;;4.40;;
21814;SDS011;11069;48.988;8.450;2023-07-02T01:26:39;5.10;;;4.20;;
21814;SDS011;11069;48.988;8.450;2023-07-02T01:31:43;6.25;;;4.22;;
21814;SDS011;11069;48.988;8.450;2023-07-02T01:34:09;5.25;;;4.68;;
21814;SDS011;11069;48.988;8.450;2023-07-02T01:36:35;9.13;;;4.45;;
21814;SDS011;11069;48.988;8.450;2023-07-02T01:39:02;4.55;;;3.92;;
21814;SDS011;11069;48.988;8.450;2023-07-02T01:41:28;5.32;;;4.13;;
21814;SDS011;11069;48.988;8.450;2023-07-02T01:43:53;5.10;;;4.50;;
21814;SDS011;11069;48.988;8.450;2023-07-02T01:46:20;6.15;;;4.82;;
21814;SDS011;11069;48.988;8.450;2023-07-02T01:48:45;5.55;;;4.63;;
21814;SDS011;11069;48.988;8.450;2023-07-02T01:51:11;6.22;;;4.05;;
21814;SDS011;11069;48.988;8.450;2023-07-02T01:53:38;5.15;;;4.03;;
21814;SDS011;11069;48.988;8.450;2023-07-02T01:56:04;5.22;;;4.00;;
21814;SDS011;11069;48.988;8.450;2023-07-02T01:58:29;4.53;;;4.10;;
21814;SDS011;11069;48.988;8.450;2023-07-02T02:00:55;5.35;;;4.32;;
21814;SDS011;11069;48.988;8.450;2023-07-02T02:03:21;7.07;;;3.70;;
21814;SDS011;11069;48.988;8.450;2023-07-02T02:05:47;6.32;;;4.03;;
21814;SDS011;11069;48.988;8.450;2023-07-02T02:08:12;6.80;;;3.67;;
21814;SDS011;11069;48.988;8.450;2023-07-02T02:10:38;4.13;;;3.38;;
21814;SDS011;11069;48.988;8.450;2023-07-02T02:13:04;4.82;;;3.08;;
21814;SDS011;11069;48.988;8.450;2023-07-02T02:15:30;4.88;;;3.40;;
21814;SDS011;11069;48.988;8.450;2023-07-02T02:17:55;5.82;;;3.25;;
21814;SDS011;11069;48.988;8.450;2023-07-02T02:20:21;3.97;;;3.10;;
21814;SDS011;11069;48.988;8.450;2023-07-02T02:22:47;3.95;;;3.00;;
21814;SDS011;11069;48.988;8.450;2023-07-02T02:25:12;4.38;;;2.95;;
21814;SDS011;11069;48.988;8.450;2023-07-02T02:27:38;5.03;;;3.63;;
21814;SDS011;11069;48.988;8.450;2023-07-02T02:30:04;5.75;;;3.55;;
21814;SDS011;11069;48.988;8.450;2023-07-02T02:32:30;3.72;;;2.80;;
21814;SDS011;11069;48.988;8.450;2023-07-02T02:34:55;5.35;;;3.33;;
21814;SDS011;11069;48.988;8.450;2023-07-02T02:37:21;5.80;;;3.58;;
21814;SDS011;11069;48.988;8.450;2023-07-02T02:39:48;4.53;;;2.95;;
21814;SDS011;11069;48.988;8.450;2023-07-02T02:42:13;4.10;;;2.92;;
21814;SDS011;11069;48.988;8.450;2023-07-02T02:44:39;5.57;;;3.35;;
21814;SDS011;11069;48.988;8.450;2023-07-02T02:47:05;4.28;;;2.90;;
21814;SDS011;11069;48.988;8.450;2023-07-02T02:49:30;5.35;;;3.30;;
21814;SDS011;11069;48.988;8.450;2023-07-02T02:51:56;9.40;;;3.42;;
21814;SDS011;11069;48.988;8.450;2023-07-02T02:54:22;5.07;;;3.38;;
21814;SDS011;11069;48.988;8.450;2023-07-02T02:56:47;4.22;;;3.35;;
21814;SDS011;11069;48.988;8.450;2023-07-02T02:59:13;5.22;;;3.47;;
21814;SDS011;11069;48.988;8.450;2023-07-02T03:01:38;6.38;;;3.33;;
21814;SDS011;11069;48.988;8.450;2023-07-02T03:04:04;4.22;;;3.15;;
21814;SDS011;11069;48.988;8.450;2023-07-02T03:06:30;3.83;;;3.10;;
21814;SDS011;11069;48.988;8.450;2023-07-02T03:08:56;4.78;;;3.45;;
21814;SDS011;11069;48.988;8.450;2023-07-02T03:11:22;4.60;;;3.17;;
21814;SDS011;11069;48.988;8.450;2023-07-02T03:13:47;4.30;;;3.15;;
21814;SDS011;11069;48.988;8.450;2023-07-02T03:16:13;5.32;;;3.42;;
21814;SDS011;11069;48.988;8.450;2023-07-02T03:18:39;4.70;;;3.33;;
21814;SDS011;11069;48.988;8.450;2023-07-02T03:21:04;4.57;;;3.38;;
21814;SDS011;11069;48.988;8.450;2023-07-02T03:23:30;6.13;;;3.42;;
21814;SDS011;11069;48.988;8.450;2023-07-02T03:25:55;4.50;;;3.20;;
21814;SDS011;11069;48.988;8.450;2023-07-02T03:28:21;6.25;;;3.15;;
21814;SDS011;11069;48.988;8.450;2023-07-02T03:30:46;6.57;;;3.67;;
21814;SDS011;11069;48.988;8.450;2023-07-02T03:33:12;6.32;;;3.47;;
21814;SDS011;11069;48.988;8.450;2023-07-02T03:35:38;6.38;;;3.67;;
21814;SDS011;11069;48.988;8.450;2023-07-02T03:38:04;4.72;;;3.20;;
21814;SDS011;11069;48.988;8.450;2023-07-02T03:40:31;5.07;;;3.40;;
21814;SDS011;11069;48.988;8.450;2023-07-02T03:42:56;4.03;;;3.28;;
21814;SDS011;11069;48.988;8.450;2023-07-02T03:45:22;5.63;;;3.67;;
21814;SDS011;11069;48.988;8.450;2023-07-02T03:47:48;5.07;;;3.53;;
21814;SDS011;11069;48.988;8.450;2023-07-02T03:50:13;7.03;;;3.35;;
21814;SDS011;11069;48.988;8.450;2023-07-02T03:52:39;5.55;;;4.05;;
21814;SDS011;11069;48.988;8.450;2023-07-02T03:55:04;3.92;;;3.05;;
21814;SDS011;11069;48.988;8.450;2023-07-02T03:57:30;5.07;;;3.65;;
21814;SDS011;11069;48.988;8.450;2023-07-02T03:59:56;6.63;;;4.05;;
21814;SDS011;11069;48.988;8.450;2023-07-02T04:02:22;5.07;;;3.45;;
21814;SDS011;11069;48.988;8.450;2023-07-02T04:04:47;4.88;;;3.90;;
21814;SDS011;11069;48.988;8.450;2023-07-02T04:07:13;4.60;;;3.58;;
21814;SDS011;11069;48.988;8.450;2023-07-02T04:09:38;5.30;;;3.63;;
21814;SDS011;11069;48.988;8.450;2023-07-02T04:12:04;4.70;;;3.50;;
21814;SDS011;11069;48.988;8.450;2023-07-02T04:14:30;4.28;;;3.30;;
21814;SDS011;11069;48.988;8.450;2023-07-02T04:16:56;6.50;;;3.88;;
21814;SDS011;11069;48.988;8.450;2023-07-02T04:19:21;4.85;;;3.50;;
21814;SDS011;11069;48.988;8.450;2023-07-02T04:21:47;4.88;;;3.40;;
21814;SDS011;11069;48.988;8.450;2023-07-02T04:24:12;5.30;;;3.50;;
21814;SDS011;11069;48.988;8.450;2023-07-02T04:26:38;6.40;;;3.53;;
21814;SDS011;11069;48.988;8.450;2023-07-02T04:29:07;4.88;;;3.78;;
21814;SDS011;11069;48.988;8.450;2023-07-02T04:31:34;5.10;;;3.53;;
21814;SDS011;11069;48.988;8.450;2023-07-02T04:33:59;7.93;;;3.92;;
21814;SDS011;11069;48.988;8.450;2023-07-02T04:36:25;6.63;;;3.78;;
21814;SDS011;11069;48.988;8.450;2023-07-02T04:38:51;5.75;;;4.03;;
21814;SDS011;11069;48.988;8.450;2023-07-02T04:41:17;5.45;;;3.47;;
21814;SDS011;11069;48.988;8.450;2023-07-02T04:43:43;4.90;;;3.67;;
21814;SDS011;11069;48.988;8.450;2023-07-02T04:46:10;6.20;;;4.05;;
21814;SDS011;11069;48.988;8.450;2023-07-02T04:48:37;4.88;;;3.63;;
21814;SDS011;11069;48.988;8.450;2023-07-02T04:51:03;6.10;;;3.75;;
21814;SDS011;11069;48.988;8.450;2023-07-02T04:53:29;7.60;;;4.25;;
21814;SDS011;11069;48.988;8.450;2023-07-02T04:55:55;5.43;;;4.05;;
21814;SDS011;11069;48.988;8.450;2023-07-02T04:58:22;6.97;;;3.72;;
21814;SDS011;11069;48.988;8.450;2023-07-02T05:00:48;5.43;;;3.38;;
21814;SDS011;11069;48.988;8.450;2023-07-02T05:03:13;6.32;;;4.00;;
21814;SDS011;11069;48.988;8.450;2023-07-02T05:05:39;6.30;;;3.75;;
21814;SDS011;11069;48.988;8.450;2023-07-02T05:08:04;7.60;;;3.50;;
21814;SDS011;11069;48.988;8.450;2023-07-02T05:10:30;6.60;;;3.70;;
21814;SDS011;11069;48.988;8.450;2023-07-02T05:12:56;8.50;;;4.03;;
21814;SDS011;11069;48.988;8.450;2023-07-02T05:15:21;5.82;;;3.42;;
21814;SDS011;11069;48.988;8.450;2023-07-02T05:17:48;7.32;;;3.90;;
21814;SDS011;11069;48.988;8.450;2023-07-02T05:20:13;6.43;;;3.42;;
21814;SDS011;11069;48.988;8.450;2023-07-02T05:22:39;6.63;;;3.83;;
21814;SDS011;11069;48.988;8.450;2023-07-02T05:25:05;4.38;;;3.65;;
21814;SDS011;11069;48.988;8.450;2023-07-02T05:27:31;5.70;;;3.58;;
21814;SDS011;11069;48.988;8.450;2023-07-02T05:29:56;5.75;;;3.72;;
21814;SDS011;11069;48.988;8.450;2023-07-02T05:32:22;6.60;;;3.92;;
21814;SDS011;11069;48.988;8.450;2023-07-02T05:34:47;6.53;;;3.50;;
21814;SDS011;11069;48.988;8.450;2023-07-02T05:37:13;8.77;;;4.15;;
21814;SDS011;11069;48.988;8.450;2023-07-02T05:39:39;8.40;;;4.10;;
21814;SDS011;11069;48.988;8.450;2023-07-02T05:42:04;7.50;;;3.42;;
21814;SDS011;11069;48.988;8.450;2023-07-02T05:44:30;5.70;;;3.67;;
21814;SDS011;11069;48.988;8.450;2023-07-02T05:46:55;6.30;;;3.58;;
21814;SDS011;11069;48.988;8.450;2023-07-02T05:49:21;7.60;;;4.30;;
21814;SDS011;11069;48.988;8.450;2023-07-02T05:51:47;6.15;;;4.00;;
21814;SDS011;11069;48.988;8.450;2023-07-02T05:54:12;5.68;;;4.00;;
21814;SDS011;11069;48.988;8.450;2023-07-02T05:56:38;7.30;;;4.28;;
21814;SDS011;11069;48.988;8.450;2023-07-02T05:59:03;7.22;;;3.92;;
21814;SDS011;11069;48.988;8.450;2023-07-02T06:01:29;8.65;;;4.28;;
21814;SDS011;11069;48.988;8.450;2023-07-02T06:03:54;5.15;;;3.75;;
21814;SDS011;11069;48.988;8.450;2023-07-02T06:06:23;8.75;;;3.80;;
21814;SDS011;11069;48.988;8.450;2023-07-02T06:08:51;5.05;;;3.58;;
21814;SDS011;11069;48.988;8.450;2023-07-02T06:11:17;5.43;;;3.53;;
21814;SDS011;11069;48.988;8.450;2023-07-02T06:13:43;5.55;;;3.30;;
21814;SDS011;11069;48.988;8.450;2023-07-02T06:16:08;5.95;;;3.45;;
21814;SDS011;11069;48.988;8.450;2023-07-02T06:18:34;6.03;;;3.35;;
21814;SDS011;11069;48.988;8.450;2023-07-02T06:21:00;6.20;;;3.33;;
21814;SDS011;11069;48.988;8.450;2023-07-02T06:23:25;7.07;;;3.80;;
21814;SDS011;11069;48.988;8.450;2023-07-02T06:25:51;8.98;;;4.20;;
21814;SDS011;11069;48.988;8.450;2023-07-02T06:28:18;5.72;;;4.30;;
21814;SDS011;11069;48.988;8.450;2023-07-02T06:30:44;8.70;;;4.95;;
21814;SDS011;11069;48.988;8.450;2023-07-02T06:33:09;9.43;;;4.22;;
21814;SDS011;11069;48.988;8.450;2023-07-02T06:35:35;7.00;;;4.60;;
21814;SDS011;11069;48.988;8.450;2023-07-02T06:38:01;8.43;;;4.75;;
21814;SDS011;11069;48.988;8.450;2023-07-02T06:40:26;11.00;;;5.25;;
21814;SDS011;11069;48.988;8.450;2023-07-02T06:42:52;8.75;;;5.07;;
21814;SDS011;11069;48.988;8.450;2023-07-02T06:45:17;9.13;;;5.53;;
21814;SDS011;11069;48.988;8.450;2023-07-02T06:47:43;12.05;;;5.50;;
21814;SDS011;11069;48.988;8.450;2023-07-02T06:50:08;11.63;;;5.78;;
21814;SDS011;11069;48.988;8.450;2023-07-02T06:52:35;10.95;;;6.70;;
21814;SDS011;11069;48.988;8.450;2023-07-02T06:55:01;11.95;;;6.13;;
21814;SDS011;11069;48.988;8.450;2023-07-02T06:57:28;12.15;;;7.07;;
21814;SDS011;11069;48.988;8.450;2023-07-02T06:59:57;13.43;;;6.90;;
21814;SDS011;11069;48.988;8.450;2023-07-02T07:02:24;11.32;;;7.00;;
21814;SDS011;11069;48.988;8.450;2023-07-02T07:04:49;11.77;;;7.22;;
21814;SDS011;11069;48.988;8.450;2023-07-02T07:07:15;13.43;;;7.00;;
21814;SDS011;11069;48.988;8.450;2023-07-02T07:09:40;13.80;;;7.57;;
21814;SDS011;11069;48.988;8.450;2023-07-02T07:12:06;16.73;;;7.85;;
21814;SDS011;11069;48.988;8.450;2023-07-02T07:14:32;16.60;;;8.02;;
21814;SDS011;11069;48.988;8.450;2023-07-02T07:16:57;15.38;;;8.68;;
21814;SDS011;11069;48.988;8.450;2023-07-02T07:19:23;15.35;;;8.82;;
21814;SDS011;11069;48.988;8.450;2023-07-02T07:21:48;19.80;;;8.90;;
21814;SDS011;11069;48.988;8.450;2023-07-02T07:24:14;20.52;;;9.55;;
21814;SDS011;11069;48.988;8.450;2023-07-02T07:26:40;16.33;;;8.90;;
21814;SDS011;11069;48.988;8.450;2023-07-02T07:29:05;18.58;;;10.15;;
21814;SDS011;11069;48.988;8.450;2023-07-02T07:31:31;19.95;;;9.68;;
21814;SDS011;11069;48.988;8.450;2023-07-02T07:33:56;18.63;;;9.93;;
21814;SDS011;11069;48.988;8.450;2023-07-02T07:36:22;15.15;;;8.38;;
21814;SDS011;11069;48.988;8.450;2023-07-02T07:38:47;15.82;;;9.18;;
21814;SDS011;11069;48.988;8.450;2023-07-02T07:41:13;16.25;;;8.98;;
21814;SDS011;11069;48.988;8.450;2023-07-02T07:43:38;18.77;;;9.43;;
21814;SDS011;11069;48.988;8.450;2023-07-02T07:46:04;17.55;;;9.00;;
21814;SDS011;11069;48.988;8.450;2023-07-02T07:48:30;19.60;;;9.65;;
21814;SDS011;11069;48.988;8.450;2023-07-02T07:50:55;15.57;;;8.90;;
21814;SDS011;11069;48.988;8.450;2023-07-02T07:53:21;16.90;;;9.40;;
21814;SDS011;11069;48.988;8.450;2023-07-02T07:55:46;22.20;;;10.00;;
21814;SDS011;11069;48.988;8.450;2023-07-02T07:58:12;20.83;;;11.43;;
21814;SDS011;11069;48.988;8.450;2023-07-02T08:00:38;23.80;;;11.70;;
21814;SDS011;11069;48.988;8.450;2023-07-02T08:03:03;24.55;;;13.25;;
21814;SDS011;11069;48.988;8.450;2023-07-02T08:05:29;25.75;;;13.45;;
21814;SDS011;11069;48.988;8.450;2023-07-02T08:07:55;25.25;;;13.27;;
21814;SDS011;11069;48.988;8.450;2023-07-02T08:10:22;25.45;;;13.10;;
21814;SDS011;11069;48.988;8.450;2023-07-02T08:12:48;27.98;;;12.43;;
21814;SDS011;11069;48.988;8.450;2023-07-02T08:15:14;22.95;;;12.98;;
21814;SDS011;11069;48.988;8.450;2023-07-02T08:17:40;24.27;;;12.88;;
21814;SDS011;11069;48.988;8.450;2023-07-02T08:20:06;23.42;;;12.68;;
21814;SDS011;11069;48.988;8.450;2023-07-02T08:22:35;26.88;;;13.40;;
21814;SDS011;11069;48.988;8.450;2023-07-02T08:25:02;25.42;;;13.70;;
21814;SDS011;11069;48.988;8.450;2023-07-02T08:27:27;21.85;;;12.35;;
21814;SDS011;11069;48.988;8.450;2023-07-02T08:29:53;23.48;;;12.75;;
21814;SDS011;11069;48.988;8.450;2023-07-02T08:32:19;22.80;;;12.68;;
21814;SDS011;11069;48.988;8.450;2023-07-02T08:34:44;23.13;;;12.90;;
21814;SDS011;11069;48.988;8.450;2023-07-02T08:37:10;22.80;;;12.88;;
21814;SDS011;11069;48.988;8.450;2023-07-02T08:39:36;30.88;;;13.18;;
21814;SDS011;11069;48.988;8.450;2023-07-02T08:42:04;27.63;;;14.07;;
21814;SDS011;11069;48.988;8.450;2023-07-02T08:44:30;23.52;;;13.38;;
21814;SDS011;11069;48.988;8.450;2023-07-02T08:46:56;24.02;;;13.57;;
21814;SDS011;11069;48.988;8.450;2023-07-02T08:49:22;25.50;;;14.18;;
21814;SDS011;11069;48.988;8.450;2023-07-02T08:51:48;27.70;;;13.85;;
21814;SDS011;11069;48.988;8.450;2023-07-02T08:54:13;23.50;;;12.45;;
21814;SDS011;11069;48.988;8.450;2023-07-02T08:56:41;26.58;;;13.68;;
21814;SDS011;11069;48.988;8.450;2023-07-02T08:59:07;25.58;;;13.40;;
21814;SDS011;11069;48.988;8.450;2023-07-02T09:01:44;23.80;;;12.98;;
21814;SDS011;11069;48.988;8.450;2023-07-02T09:04:24;26.48;;;13.70;;
21814;SDS011;11069;48.988;8.450;2023-07-02T09:06:51;25.55;;;13.27;;
21814;SDS011;11069;48.988;8.450;2023-07-02T09:09:33;26.30;;;12.73;;
21814;SDS011;11069;48.988;8.450;2023-07-02T09:12:21;27.95;;;14.13;;
21814;SDS011;11069;48.988;8.450;2023-07-02T09:14:57;25.27;;;13.18;;
21814;SDS011;11069;48.988;8.450;2023-07-02T09:19:57;28.65;;;13.55;;
21814;SDS011;11069;48.988;8.450;2023-07-02T09:22:25;24.25;;;12.88;;
21814;SDS011;11069;48.988;8.450;2023-07-02T09:25:01;23.70;;;13.45;;
21814;SDS011;11069;48.988;8.450;2023-07-02T09:27:40;23.80;;;12.05;;
21814;SDS011;11069;48.988;8.450;2023-07-02T09:30:10;22.10;;;12.88;;
21814;SDS011;11069;48.988;8.450;2023-07-02T09:32:43;19.42;;;12.20;;
21814;SDS011;11069;48.988;8.450;2023-07-02T09:35:09;25.33;;;13.82;;
21814;SDS011;11069;48.988;8.450;2023-07-02T09:37:35;22.15;;;12.10;;
21814;SDS011;11069;48.988;8.450;2023-07-02T09:40:01;24.33;;;13.73;;
21814;SDS011;11069;48.988;8.450;2023-07-02T09:42:30;23.30;;;12.52;;
21814;SDS011;11069;48.988;8.450;2023-07-02T09:44:58;27.13;;;13.23;;
21814;SDS011;11069;48.988;8.450;2023-07-02T09:47:25;22.90;;;13.45;;
21814;SDS011;11069;48.988;8.450;2023-07-02T09:52:19;22.48;;;12.85;;
21814;SDS011;11069;48.988;8.450;2023-07-02T09:54:45;25.60;;;12.82;;
21814;SDS011;11069;48.988;8.450;2023-07-02T09:57:11;20.98;;;12.57;;
21814;SDS011;11069;48.988;8.450;2023-07-02T09:59:37;25.67;;;12.98;;
21814;SDS011;11069;48.988;8.450;2023-07-02T10:02:04;23.50;;;12.25;;
21814;SDS011;11069;48.988;8.450;2023-07-02T10:04:46;26.00;;;13.38;;
21814;SDS011;11069;48.988;8.450;2023-07-02T10:07:25;23.15;;;12.75;;
21814;SDS011;11069;48.988;8.450;2023-07-02T10:09:53;24.67;;;13.10;;
21814;SDS011;11069;48.988;8.450;2023-07-02T10:12:19;24.73;;;13.43;;
21814;SDS011;11069;48.988;8.450;2023-07-02T10:14:46;23.63;;;13.30;;
21814;SDS011;11069;48.988;8.450;2023-07-02T10:19:55;28.38;;;13.63;;
21814;SDS011;11069;48.988;8.450;2023-07-02T10:22:23;24.85;;;14.05;;
21814;SDS011;11069;48.988;8.450;2023-07-02T10:24:52;25.73;;;14.07;;
21814;SDS011;11069;48.988;8.450;2023-07-02T10:29:49;24.05;;;12.45;;
21814;SDS011;11069;48.988;8.450;2023-07-02T10:32:25;24.60;;;13.57;;
21814;SDS011;11069;48.988;8.450;2023-07-02T10:34:52;23.50;;;12.95;;
21814;SDS011;11069;48.988;8.450;2023-07-02T10:37:17;24.55;;;12.70;;
21814;SDS011;11069;48.988;8.450;2023-07-02T10:39:43;22.42;;;12.65;;
21814;SDS011;11069;48.988;8.450;2023-07-02T10:42:09;22.70;;;13.10;;
21814;SDS011;11069;48.988;8.450;2023-07-02T10:44:46;24.50;;;13.98;;
21814;SDS011;11069;48.988;8.450;2023-07-02T10:47:12;21.75;;;12.07;;
21814;SDS011;11069;48.988;8.450;2023-07-02T10:49:38;24.90;;;12.82;;
21814;SDS011;11069;48.988;8.450;2023-07-02T10:52:04;21.08;;;12.60;;
21814;SDS011;11069;48.988;8.450;2023-07-02T10:54:45;21.70;;;11.90;;
21814;SDS011;11069;48.988;8.450;2023-07-02T10:57:15;26.02;;;13.52;;
21814;SDS011;11069;48.988;8.450;2023-07-02T10:59:46;21.80;;;12.80;;
21814;SDS011;11069;48.988;8.450;2023-07-02T11:02:13;31.60;;;20.23;;
21814;SDS011;11069;48.988;8.450;2023-07-02T11:04:39;21.92;;;12.27;;
21814;SDS011;11069;48.988;8.450;2023-07-02T11:07:21;20.77;;;13.15;;
21814;SDS011;11069;48.988;8.450;2023-07-02T11:09:51;24.13;;;12.77;;
21814;SDS011;11069;48.988;8.450;2023-07-02T11:12:31;20.98;;;12.05;;
21814;SDS011;11069;48.988;8.450;2023-07-02T11:15:07;19.98;;;12.05;;
21814;SDS011;11069;48.988;8.450;2023-07-02T11:17:40;22.17;;;13.32;;
21814;SDS011;11069;48.988;8.450;2023-07-02T11:20:10;20.80;;;11.63;;
21814;SDS011;11069;48.988;8.450;2023-07-02T11:22:37;19.55;;;11.20;;
21814;SDS011;11069;48.988;8.450;2023-07-02T11:25:13;23.15;;;13.73;;
21814;SDS011;11069;48.988;8.450;2023-07-02T11:27:41;27.67;;;15.35;;
21814;SDS011;11069;48.988;8.450;2023-07-02T11:30:07;23.77;;;12.60;;
21814;SDS011;11069;48.988;8.450;2023-07-02T11:35:19;29.90;;;19.77;;
21814;SDS011;11069;48.988;8.450;2023-07-02T11:37:45;31.25;;;19.73;;
21814;SDS011;11069;48.988;8.450;2023-07-02T11:40:13;31.27;;;19.80;;
21814;SDS011;11069;48.988;8.450;2023-07-02T11:42:39;32.92;;;20.42;;
21814;SDS011;11069;48.988;8.450;2023-07-02T11:45:05;30.63;;;18.63;;
21814;SDS011;11069;48.988;8.450;2023-07-02T11:47:31;41.63;;;28.65;;
21814;SDS011;11069;48.988;8.450;2023-07-02T11:49:57;25.23;;;12.68;;
21814;SDS011;11069;48.988;8.450;2023-07-02T11:52:24;25.15;;;12.90;;
21814;SDS011;11069;48.988;8.450;2023-07-02T11:54:50;23.52;;;13.20;;
21814;SDS011;11069;48.988;8.450;2023-07-02T11:57:16;22.35;;;11.95;;
21814;SDS011;11069;48.988;8.450;2023-07-02T11:59:42;22.45;;;12.38;;
21814;SDS011;11069;48.988;8.450;2023-07-02T12:02:07;21.17;;;11.95;;
21814;SDS011;11069;48.988;8.450;2023-07-02T12:04:33;20.35;;;11.52;;
21814;SDS011;11069;48.988;8.450;2023-07-02T12:06:59;18.90;;;11.52;;
21814;SDS011;11069;48.988;8.450;2023-07-02T12:09:26;23.88;;;12.02;;
21814;SDS011;11069;48.988;8.450;2023-07-02T12:11:52;19.42;;;11.57;;
21814;SDS011;11069;48.988;8.450;2023-07-02T12:14:18;19.73;;;10.73;;
21814;SDS011;11069;48.988;8.450;2023-07-02T12:16:43;18.38;;;10.52;;
21814;SDS011;11069;48.988;8.450;2023-07-02T12:19:09;21.17;;;11.07;;
21814;SDS011;11069;48.988;8.450;2023-07-02T12:21:35;18.02;;;10.55;;
21814;SDS011;11069;48.988;8.450;2023-07-02T12:24:01;19.45;;;10.77;;
21814;SDS011;11069;48.988;8.450;2023-07-02T12:26:27;20.65;;;11.00;;
21814;SDS011;11069;48.988;8.450;2023-07-02T12:28:53;20.33;;;10.98;;
21814;SDS011;11069;48.988;8.450;2023-07-02T12:31:19;20.92;;;11.50;;
21814;SDS011;11069;48.988;8.450;2023-07-02T12:33:45;24.50;;;11.23;;
21814;SDS011;11069;48.988;8.450;2023-07-02T12:36:10;19.95;;;10.95;;
21814;SDS011;11069;48.988;8.450;2023-07-02T12:38:37;22.48;;;11.93;;
21814;SDS011;11069;48.988;8.450;2023-07-02T12:41:02;20.40;;;11.80;;
21814;SDS011;11069;48.988;8.450;2023-07-02T12:43:28;19.95;;;10.88;;
21814;SDS011;11069;48.988;8.450;2023-07-02T12:45:53;20.23;;;10.55;;
21814;SDS011;11069;48.988;8.450;2023-07-02T12:48:19;19.10;;;10.80;;
21814;SDS011;11069;48.988;8.450;2023-07-02T12:50:54;19.17;;;10.75;;
21814;SDS011;11069;48.988;8.450;2023-07-02T12:53:20;20.50;;;11.50;;
21814;SDS011;11069;48.988;8.450;2023-07-02T12:55:46;18.45;;;10.57;;
21814;SDS011;11069;48.988;8.450;2023-07-02T12:58:12;23.73;;;10.82;;
21814;SDS011;11069;48.988;8.450;2023-07-02T13:00:37;19.75;;;10.60;;
21814;SDS011;11069;48.988;8.450;2023-07-02T13:03:03;19.85;;;10.85;;
21814;SDS011;11069;48.988;8.450;2023-07-02T13:05:31;20.70;;;11.75;;
21814;SDS011;11069;48.988;8.450;2023-07-02T13:07:56;19.83;;;11.63;;
21814;SDS011;11069;48.988;8.450;2023-07-02T13:10:22;18.30;;;10.43;;
21814;SDS011;11069;48.988;8.450;2023-07-02T13:12:48;17.67;;;10.75;;
21814;SDS011;11069;48.988;8.450;2023-07-02T13:15:13;18.83;;;10.40;;
21814;SDS011;11069;48.988;8.450;2023-07-02T13:17:39;16.02;;;10.15;;
21814;SDS011;11069;48.988;8.450;2023-07-02T13:20:06;20.42;;;10.68;;
21814;SDS011;11069;48.988;8.450;2023-07-02T13:22:32;18.05;;;10.38;;
21814;SDS011;11069;48.988;8.450;2023-07-02T13:24:58;17.88;;;10.40;;
21814;SDS011;11069;48.988;8.450;2023-07-02T13:27:23;19.52;;;10.73;;
21814;SDS011;11069;48.988;8.450;2023-07-02T13:29:49;17.92;;;10.32;;
21814;SDS011;11069;48.988;8.450;2023-07-02T13:32:14;16.63;;;9.25;;
21814;SDS011;11069;48.988;8.450;2023-07-02T13:34:40;16.63;;;9.40;;
21814;SDS011;11069;48.988;8.450;2023-07-02T13:37:05;20.75;;;10.63;;
21814;SDS011;11069;48.988;8.450;2023-07-02T13:39:33;17.63;;;10.02;;
21814;SDS011;11069;48.988;8.450;2023-07-02T13:41:59;17.15;;;10.13;;
21814;SDS011;11069;48.988;8.450;2023-07-02T13:44:25;18.60;;;10.70;;
21814;SDS011;11069;48.988;8.450;2023-07-02T13:46:50;15.40;;;9.02;;
21814;SDS011;11069;48.988;8.450;2023-07-02T13:49:16;17.92;;;9.63;;
21814;SDS011;11069;48.988;8.450;2023-07-02T13:51:41;15.98;;;9.30;;
21814;SDS011;11069;48.988;8.450;2023-07-02T13:54:07;16.63;;;9.73;;
21814;SDS011;11069;48.988;8.450;2023-07-02T13:56:36;15.50;;;9.65;;
21814;SDS011;11069;48.988;8.450;2023-07-02T13:59:02;18.10;;;9.98;;
21814;SDS011;11069;48.988;8.450;2023-07-02T14:01:29;16.25;;;9.38;;
21814;SDS011;11069;48.988;8.450;2023-07-02T14:03:54;16.80;;;9.35;;
21814;SDS011;11069;48.988;8.450;2023-07-02T14:06:20;15.35;;;9.30;;
21814;SDS011;11069;48.988;8.450;2023-07-02T14:08:46;17.27;;;8.77;;
21814;SDS011;11069;48.988;8.450;2023-07-02T14:11:12;15.75;;;9.70;;
21814;SDS011;11069;48.988;8.450;2023-07-02T14:13:37;16.05;;;9.90;;
21814;SDS011;11069;48.988;8.450;2023-07-02T14:16:03;20.77;;;10.40;;
21814;SDS011;11069;48.988;8.450;2023-07-02T14:18:29;17.17;;;9.30;;
21814;SDS011;11069;48.988;8.450;2023-07-02T14:20:54;17.33;;;9.75;;
21814;SDS011;11069;48.988;8.450;2023-07-02T14:23:20;21.55;;;10.27;;
21814;SDS011;11069;48.988;8.450;2023-07-02T14:25:46;18.30;;;9.27;;
21814;SDS011;11069;48.988;8.450;2023-07-02T14:28:11;18.13;;;9.32;;
21814;SDS011;11069;48.988;8.450;2023-07-02T14:30:37;20.88;;;10.38;;
21814;SDS011;11069;48.988;8.450;2023-07-02T14:33:05;15.32;;;9.15;;
21814;SDS011;11069;48.988;8.450;2023-07-02T14:35:31;20.10;;;10.13;;
21814;SDS011;11069;48.988;8.450;2023-07-02T14:37:57;18.05;;;10.02;;
21814;SDS011;11069;48.988;8.450;2023-07-02T14:40:23;16.38;;;9.32;;
21814;SDS011;11069;48.988;8.450;2023-07-02T14:42:49;17.35;;;9.52;;
21814;SDS011;11069;48.988;8.450;2023-07-02T14:45:14;17.85;;;9.15;;
21814;SDS011;11069;48.988;8.450;2023-07-02T14:47:40;17.02;;;10.05;;
21814;SDS011;11069;48.988;8.450;2023-07-02T14:50:06;25.73;;;10.80;;